sensor_id;sensor_type;location;lat;lon;timestamp;pressure;altitude;pressure_sealevel;temperature;humidity
57628;BME280;43451;49.060;10.616;2023-02-19T00:00:01;97171.75;;;7.44;100.00
57628;BME280;43451;49.060;10.616;2023-02-19T00:02:27;97173.19;;;7.61;100.00
57628;BME280;43451;49.060;10.616;2023-02-19T00:04:52;97171.16;;;7.54;100.00
57628;BME280;43451;49.060;10.616;2023-02-19T00:07:17;97171.28;;;7.61;100.00
57628;BME280;43451;49.060;10.616;2023-02-19T00:09:43;97165.94;;;7.65;100.00
57628;BME280;43451;49.060;10.616;2023-02-19T00:12:08;97173.78;;;7.74;100.00
57628;BME280;43451;49.060;10.616;2023-02-19T00:14:34;97164.78;;;7.66;100.00
57628;BME280;43451;49.060;10.616;2023-02-19T00:16:59;97167.75;;;7.80;100.00
57628;BME280;43451;49.060;10.616;2023-02-19T00:19:25;97161.78;;;7.94;100.00
57628;BME280;43451;49.060;10.616;2023-02-19T00:21:51;97152.88;;;7.71;100.00
57628;BME280;43451;49.060;10.616;2023-02-19T00:24:17;97161.25;;;7.62;100.00
57628;BME280;43451;49.060;10.616;2023-02-19T00:26:44;97155.13;;;7.65;100.00
57628;BME280;43451;49.060;10.616;2023-02-19T00:29:28;97157.28;;;7.79;100.00
57628;BME280;43451;49.060;10.616;2023-02-19T00:31:54;97153.91;;;7.62;100.00
57628;BME280;43451;49.060;10.616;2023-02-19T00:34:19;97162.91;;;7.47;100.00
57628;BME280;43451;49.060;10.616;2023-02-19T00:36:45;97166.72;;;7.42;100.00
57628;BME280;43451;49.060;10.616;2023-02-19T00:39:13;97161.00;;;7.48;100.00
57628;BME280;43451;49.060;10.616;2023-02-19T00:41:39;97159.56;;;7.54;100.00
57628;BME280;43451;49.060;10.616;2023-02-19T00:44:06;97151.50;;;7.57;100.00
57628;BME280;43451;49.060;10.616;2023-02-19T00:46:38;97155.47;;;7.40;100.00
57628;BME280;43451;49.060;10.616;2023-02-19T00:49:05;97149.47;;;7.51;100.00
57628;BME280;43451;49.060;10.616;2023-02-19T00:51:35;97146.22;;;7.41;100.00
57628;BME280;43451;49.060;10.616;2023-02-19T00:54:02;97148.97;;;7.45;100.00
57628;BME280;43451;49.060;10.616;2023-02-19T00:56:27;97147.84;;;7.46;100.00
57628;BME280;43451;49.060;10.616;2023-02-19T00:58:53;97143.63;;;7.26;100.00
57628;BME280;43451;49.060;10.616;2023-02-19T01:01:19;97147.06;;;7.46;100.00
57628;BME280;43451;49.060;10.616;2023-02-19T01:03:45;97133.69;;;7.30;100.00
57628;BME280;43451;49.060;10.616;2023-02-19T01:06:13;97135.34;;;7.38;100.00
57628;BME280;43451;49.060;10.616;2023-02-19T01:08:39;97122.09;;;7.52;100.00
57628;BME280;43451;49.060;10.616;2023-02-19T01:11:05;97130.97;;;7.53;100.00
57628;BME280;43451;49.060;10.616;2023-02-19T01:13:32;97121.03;;;7.60;100.00
57628;BME280;43451;49.060;10.616;2023-02-19T01:16:07;97115.53;;;7.53;100.00
57628;BME280;43451;49.060;10.616;2023-02-19T01:18:34;97106.94;;;7.48;100.00
57628;BME280;43451;49.060;10.616;2023-02-19T01:21:04;97098.09;;;7.51;100.00
57628;BME280;43451;49.060;10.616;2023-02-19T01:23:31;97103.22;;;7.56;100.00
57628;BME280;43451;49.060;10.616;2023-02-19T01:25:56;97100.09;;;7.54;100.00
57628;BME280;43451;49.060;10.616;2023-02-19T01:28:22;97102.50;;;7.59;100.00
57628;BME280;43451;49.060;10.616;2023-02-19T01:30:47;97101.53;;;7.48;100.00
57628;BME280;43451;49.060;10.616;2023-02-19T01:33:13;97087.94;;;7.67;100.00
57628;BME280;43451;49.060;10.616;2023-02-19T01:35:38;97071.84;;;7.51;100.00
57628;BME280;43451;49.060;10.616;2023-02-19T01:38:04;97074.25;;;7.56;100.00
57628;BME280;43451;49.060;10.616;2023-02-19T01:40:31;97054.13;;;7.54;100.00
57628;BME280;43451;49.060;10.616;2023-02-19T01:42:57;97084.97;;;7.49;100.00
57628;BME280;43451;49.060;10.616;2023-02-19T01:45:38;97091.09;;;7.46;100.00
57628;BME280;43451;49.060;10.616;2023-02-19T01:50:54;97075.41;;;7.55;100.00
57628;BME280;43451;49.060;10.616;2023-02-19T01:53:25;97073.03;;;7.54;100.00
57628;BME280;43451;49.060;10.616;2023-02-19T01:55:55;97070.66;;;7.49;100.00
57628;BME280;43451;49.060;10.616;2023-02-19T01:58:24;97056.81;;;7.54;100.00
57628;BME280;43451;49.060;10.616;2023-02-19T02:00:50;97054.59;;;7.59;100.00
57628;BME280;43451;49.060;10.616;2023-02-19T02:03:17;97040.50;;;7.73;100.00
57628;BME280;43451;49.060;10.616;2023-02-19T02:05:49;97037.22;;;7.60;100.00
57628;BME280;43451;49.060;10.616;2023-02-19T02:08:18;97037.69;;;7.66;100.00
57628;BME280;43451;49.060;10.616;2023-02-19T02:11:02;97041.97;;;7.67;100.00
57628;BME280;43451;49.060;10.616;2023-02-19T02:13:29;97052.13;;;7.51;100.00
57628;BME280;43451;49.060;10.616;2023-02-19T02:16:22;97043.53;;;7.68;100.00
57628;BME280;43451;49.060;10.616;2023-02-19T02:19:05;97042.59;;;7.83;100.00
57628;BME280;43451;49.060;10.616;2023-02-19T02:21:51;97046.44;;;7.82;100.00
57628;BME280;43451;49.060;10.616;2023-02-19T02:27:27;97029.69;;;7.47;100.00
57628;BME280;43451;49.060;10.616;2023-02-19T02:32:37;97033.53;;;7.46;100.00
57628;BME280;43451;49.060;10.616;2023-02-19T02:35:11;97025.09;;;7.51;100.00
57628;BME280;43451;49.060;10.616;2023-02-19T02:37:39;97033.66;;;7.53;100.00
57628;BME280;43451;49.060;10.616;2023-02-19T02:40:07;97029.78;;;7.54;100.00
57628;BME280;43451;49.060;10.616;2023-02-19T02:42:37;97036.66;;;7.48;100.00
57628;BME280;43451;49.060;10.616;2023-02-19T02:45:25;97033.03;;;7.63;100.00
57628;BME280;43451;49.060;10.616;2023-02-19T02:48:20;97015.44;;;7.50;100.00
57628;BME280;43451;49.060;10.616;2023-02-19T02:51:19;97033.59;;;7.49;100.00
57628;BME280;43451;49.060;10.616;2023-02-19T02:53:55;97021.94;;;7.45;100.00
57628;BME280;43451;49.060;10.616;2023-02-19T02:56:41;97019.69;;;7.51;100.00
57628;BME280;43451;49.060;10.616;2023-02-19T02:59:10;97020.31;;;7.40;100.00
57628;BME280;43451;49.060;10.616;2023-02-19T03:01:44;97009.50;;;7.40;100.00
57628;BME280;43451;49.060;10.616;2023-02-19T03:07:04;97019.56;;;7.40;100.00
57628;BME280;43451;49.060;10.616;2023-02-19T03:09:35;97018.59;;;7.29;100.00
57628;BME280;43451;49.060;10.616;2023-02-19T03:12:06;97016.47;;;7.41;100.00
57628;BME280;43451;49.060;10.616;2023-02-19T03:14:54;97021.28;;;7.52;100.00
57628;BME280;43451;49.060;10.616;2023-02-19T03:17:52;97009.28;;;7.26;100.00
57628;BME280;43451;49.060;10.616;2023-02-19T03:20:40;97017.09;;;7.31;100.00
57628;BME280;43451;49.060;10.616;2023-02-19T03:23:10;97016.28;;;7.27;100.00
57628;BME280;43451;49.060;10.616;2023-02-19T03:25:38;97003.59;;;7.31;100.00
57628;BME280;43451;49.060;10.616;2023-02-19T03:28:26;97005.66;;;7.15;100.00
57628;BME280;43451;49.060;10.616;2023-02-19T03:31:15;97004.44;;;7.12;100.00
57628;BME280;43451;49.060;10.616;2023-02-19T03:33:44;97007.25;;;7.19;100.00
57628;BME280;43451;49.060;10.616;2023-02-19T03:36:12;97002.50;;;7.13;100.00
57628;BME280;43451;49.060;10.616;2023-02-19T03:38:59;96995.13;;;7.33;100.00
57628;BME280;43451;49.060;10.616;2023-02-19T03:47:17;96985.78;;;7.04;100.00
57628;BME280;43451;49.060;10.616;2023-02-19T03:54:53;96990.75;;;7.25;100.00
57628;BME280;43451;49.060;10.616;2023-02-19T03:57:30;96986.31;;;7.13;100.00
57628;BME280;43451;49.060;10.616;2023-02-19T04:00:05;96982.16;;;7.19;100.00
57628;BME280;43451;49.060;10.616;2023-02-19T04:02:40;96995.31;;;7.20;100.00
57628;BME280;43451;49.060;10.616;2023-02-19T04:05:15;96994.53;;;7.20;100.00
57628;BME280;43451;49.060;10.616;2023-02-19T04:07:45;96989.63;;;7.03;100.00
57628;BME280;43451;49.060;10.616;2023-02-19T04:10:13;96983.38;;;6.98;100.00
57628;BME280;43451;49.060;10.616;2023-02-19T04:12:44;96988.47;;;7.04;100.00
57628;BME280;43451;49.060;10.616;2023-02-19T04:15:15;96998.97;;;7.09;100.00
57628;BME280;43451;49.060;10.616;2023-02-19T04:17:49;96988.22;;;7.12;100.00
57628;BME280;43451;49.060;10.616;2023-02-19T04:20:19;96993.47;;;7.02;100.00
57628;BME280;43451;49.060;10.616;2023-02-19T04:22:47;96998.72;;;6.94;100.00
57628;BME280;43451;49.060;10.616;2023-02-19T04:25:13;97014.94;;;6.94;100.00
57628;BME280;43451;49.060;10.616;2023-02-19T04:27:38;97028.53;;;6.98;100.00
57628;BME280;43451;49.060;10.616;2023-02-19T04:30:06;97018.84;;;6.97;100.00
57628;BME280;43451;49.060;10.616;2023-02-19T04:32:32;97011.78;;;7.12;100.00
57628;BME280;43451;49.060;10.616;2023-02-19T04:34:57;97022.09;;;7.06;100.00
57628;BME280;43451;49.060;10.616;2023-02-19T04:37:22;97024.31;;;7.24;100.00
57628;BME280;43451;49.060;10.616;2023-02-19T04:39:48;97022.06;;;7.29;100.00
57628;BME280;43451;49.060;10.616;2023-02-19T04:42:13;97044.00;;;7.24;100.00
57628;BME280;43451;49.060;10.616;2023-02-19T04:44:39;97014.31;;;7.01;100.00
57628;BME280;43451;49.060;10.616;2023-02-19T04:47:04;97028.41;;;7.14;100.00
57628;BME280;43451;49.060;10.616;2023-02-19T04:49:30;97016.75;;;7.10;100.00
57628;BME280;43451;49.060;10.616;2023-02-19T04:51:55;97016.31;;;7.31;100.00
57628;BME280;43451;49.060;10.616;2023-02-19T04:54:21;97026.41;;;7.34;100.00
57628;BME280;43451;49.060;10.616;2023-02-19T04:56:48;97029.97;;;7.15;100.00
57628;BME280;43451;49.060;10.616;2023-02-19T04:59:15;97032.56;;;7.08;100.00
57628;BME280;43451;49.060;10.616;2023-02-19T05:01:40;97023.41;;;6.93;100.00
57628;BME280;43451;49.060;10.616;2023-02-19T05:04:06;97039.44;;;6.82;100.00
57628;BME280;43451;49.060;10.616;2023-02-19T05:06:31;97040.94;;;6.80;100.00
57628;BME280;43451;49.060;10.616;2023-02-19T05:08:56;97032.41;;;6.78;100.00
57628;BME280;43451;49.060;10.616;2023-02-19T05:11:22;97041.78;;;6.84;100.00
57628;BME280;43451;49.060;10.616;2023-02-19T05:13:50;97053.66;;;6.79;100.00
57628;BME280;43451;49.060;10.616;2023-02-19T05:16:16;97048.31;;;6.83;100.00
57628;BME280;43451;49.060;10.616;2023-02-19T05:18:43;97055.56;;;6.79;100.00
57628;BME280;43451;49.060;10.616;2023-02-19T05:21:09;97054.00;;;6.78;100.00
57628;BME280;43451;49.060;10.616;2023-02-19T05:23:35;97036.88;;;6.89;100.00
57628;BME280;43451;49.060;10.616;2023-02-19T05:26:10;97047.81;;;6.77;100.00
57628;BME280;43451;49.060;10.616;2023-02-19T05:28:36;97051.91;;;6.90;100.00
57628;BME280;43451;49.060;10.616;2023-02-19T05:31:06;97050.44;;;6.93;100.00
57628;BME280;43451;49.060;10.616;2023-02-19T05:33:33;97045.75;;;6.90;100.00
57628;BME280;43451;49.060;10.616;2023-02-19T05:35:59;97040.88;;;6.76;100.00
57628;BME280;43451;49.060;10.616;2023-02-19T05:38:28;97049.44;;;6.82;100.00
57628;BME280;43451;49.060;10.616;2023-02-19T05:40:53;97052.69;;;6.91;100.00
57628;BME280;43451;49.060;10.616;2023-02-19T05:43:19;97064.94;;;6.85;100.00
57628;BME280;43451;49.060;10.616;2023-02-19T05:45:44;97055.44;;;6.94;100.00
57628;BME280;43451;49.060;10.616;2023-02-19T05:48:10;97055.16;;;7.00;100.00
57628;BME280;43451;49.060;10.616;2023-02-19T05:50:36;97074.28;;;6.91;100.00
57628;BME280;43451;49.060;10.616;2023-02-19T05:53:03;97081.34;;;6.95;100.00
57628;BME280;43451;49.060;10.616;2023-02-19T05:55:33;97063.81;;;7.09;100.00
57628;BME280;43451;49.060;10.616;2023-02-19T05:57:59;97059.19;;;7.09;100.00
57628;BME280;43451;49.060;10.616;2023-02-19T06:00:25;97072.03;;;7.16;100.00
57628;BME280;43451;49.060;10.616;2023-02-19T06:02:52;97064.66;;;7.13;100.00
57628;BME280;43451;49.060;10.616;2023-02-19T06:05:18;97069.22;;;7.09;100.00
57628;BME280;43451;49.060;10.616;2023-02-19T06:07:44;97082.78;;;6.89;100.00
57628;BME280;43451;49.060;10.616;2023-02-19T06:10:10;97070.94;;;6.97;100.00
57628;BME280;43451;49.060;10.616;2023-02-19T06:12:36;97090.56;;;6.94;100.00
57628;BME280;43451;49.060;10.616;2023-02-19T06:15:04;97086.88;;;7.03;100.00
57628;BME280;43451;49.060;10.616;2023-02-19T06:17:31;97085.81;;;6.88;100.00
57628;BME280;43451;49.060;10.616;2023-02-19T06:19:57;97085.16;;;6.94;100.00
57628;BME280;43451;49.060;10.616;2023-02-19T06:22:22;97086.88;;;7.03;100.00
57628;BME280;43451;49.060;10.616;2023-02-19T06:24:48;97098.97;;;6.89;100.00
57628;BME280;43451;49.060;10.616;2023-02-19T06:27:13;97102.00;;;6.88;100.00
57628;BME280;43451;49.060;10.616;2023-02-19T06:29:39;97101.97;;;6.84;100.00
57628;BME280;43451;49.060;10.616;2023-02-19T06:32:05;97112.09;;;6.91;100.00
57628;BME280;43451;49.060;10.616;2023-02-19T06:34:31;97104.38;;;6.89;100.00
57628;BME280;43451;49.060;10.616;2023-02-19T06:36:57;97112.63;;;6.77;100.00
57628;BME280;43451;49.060;10.616;2023-02-19T06:39:23;97107.09;;;6.70;100.00
57628;BME280;43451;49.060;10.616;2023-02-19T06:41:48;97121.81;;;6.72;100.00
57628;BME280;43451;49.060;10.616;2023-02-19T06:44:14;97107.16;;;6.73;100.00
57628;BME280;43451;49.060;10.616;2023-02-19T06:46:40;97111.78;;;6.73;100.00
57628;BME280;43451;49.060;10.616;2023-02-19T06:49:05;97122.41;;;6.66;100.00
57628;BME280;43451;49.060;10.616;2023-02-19T06:51:30;97125.69;;;6.75;100.00
57628;BME280;43451;49.060;10.616;2023-02-19T06:53:57;97120.09;;;6.84;100.00
57628;BME280;43451;49.060;10.616;2023-02-19T06:56:34;97133.22;;;6.66;100.00
57628;BME280;43451;49.060;10.616;2023-02-19T06:59:02;97125.44;;;6.61;100.00
57628;BME280;43451;49.060;10.616;2023-02-19T07:01:29;97144.59;;;6.75;100.00
57628;BME280;43451;49.060;10.616;2023-02-19T07:03:55;97130.69;;;6.73;100.00
57628;BME280;43451;49.060;10.616;2023-02-19T07:06:22;97144.25;;;6.77;100.00
57628;BME280;43451;49.060;10.616;2023-02-19T07:08:49;97141.91;;;6.75;100.00
57628;BME280;43451;49.060;10.616;2023-02-19T07:11:15;97158.25;;;6.82;100.00
57628;BME280;43451;49.060;10.616;2023-02-19T07:13:41;97150.38;;;6.73;100.00
57628;BME280;43451;49.060;10.616;2023-02-19T07:16:08;97145.81;;;6.78;100.00
57628;BME280;43451;49.060;10.616;2023-02-19T07:18:34;97148.44;;;6.74;100.00
57628;BME280;43451;49.060;10.616;2023-02-19T07:21:04;97154.81;;;6.66;100.00
57628;BME280;43451;49.060;10.616;2023-02-19T07:23:30;97149.72;;;6.80;100.00
57628;BME280;43451;49.060;10.616;2023-02-19T07:25:56;97154.28;;;6.76;100.00
57628;BME280;43451;49.060;10.616;2023-02-19T07:28:21;97154.09;;;6.69;100.00
57628;BME280;43451;49.060;10.616;2023-02-19T07:30:46;97168.97;;;6.79;100.00
57628;BME280;43451;49.060;10.616;2023-02-19T07:33:12;97163.22;;;6.80;100.00
57628;BME280;43451;49.060;10.616;2023-02-19T07:35:47;97166.25;;;6.79;100.00
57628;BME280;43451;49.060;10.616;2023-02-19T07:38:15;97180.56;;;6.79;100.00
57628;BME280;43451;49.060;10.616;2023-02-19T07:40:41;97169.78;;;6.79;100.00
57628;BME280;43451;49.060;10.616;2023-02-19T07:43:06;97178.28;;;6.81;100.00
57628;BME280;43451;49.060;10.616;2023-02-19T07:45:34;97186.59;;;6.72;100.00
57628;BME280;43451;49.060;10.616;2023-02-19T07:47:59;97191.06;;;6.65;100.00
57628;BME280;43451;49.060;10.616;2023-02-19T07:50:25;97191.00;;;6.61;100.00
57628;BME280;43451;49.060;10.616;2023-02-19T07:52:50;97185.97;;;6.60;100.00
57628;BME280;43451;49.060;10.616;2023-02-19T07:55:15;97190.16;;;6.77;100.00
57628;BME280;43451;49.060;10.616;2023-02-19T07:57:41;97199.75;;;6.74;100.00
57628;BME280;43451;49.060;10.616;2023-02-19T08:00:07;97196.19;;;6.70;100.00
57628;BME280;43451;49.060;10.616;2023-02-19T08:02:32;97197.94;;;6.62;100.00
57628;BME280;43451;49.060;10.616;2023-02-19T08:05:16;97204.13;;;6.63;100.00
57628;BME280;43451;49.060;10.616;2023-02-19T08:07:42;97206.00;;;6.78;100.00
57628;BME280;43451;49.060;10.616;2023-02-19T08:10:07;97217.94;;;6.77;100.00
57628;BME280;43451;49.060;10.616;2023-02-19T08:12:59;97216.44;;;6.80;100.00
57628;BME280;43451;49.060;10.616;2023-02-19T08:16:10;97215.34;;;6.65;100.00
57628;BME280;43451;49.060;10.616;2023-02-19T08:18:36;97219.63;;;6.66;100.00
57628;BME280;43451;49.060;10.616;2023-02-19T08:21:02;97225.91;;;6.70;100.00
57628;BME280;43451;49.060;10.616;2023-02-19T08:23:28;97216.97;;;6.85;100.00
57628;BME280;43451;49.060;10.616;2023-02-19T08:25:57;97217.72;;;6.66;100.00
57628;BME280;43451;49.060;10.616;2023-02-19T08:28:23;97217.63;;;6.63;100.00
57628;BME280;43451;49.060;10.616;2023-02-19T08:30:49;97226.16;;;6.65;100.00
57628;BME280;43451;49.060;10.616;2023-02-19T08:33:17;97234.84;;;6.74;100.00
57628;BME280;43451;49.060;10.616;2023-02-19T08:35:43;97222.44;;;6.89;100.00
57628;BME280;43451;49.060;10.616;2023-02-19T08:38:09;97230.59;;;6.92;100.00
57628;BME280;43451;49.060;10.616;2023-02-19T08:40:37;97237.28;;;6.98;100.00
57628;BME280;43451;49.060;10.616;2023-02-19T08:43:07;97226.69;;;7.09;100.00
57628;BME280;43451;49.060;10.616;2023-02-19T08:45:33;97243.69;;;7.10;100.00
57628;BME280;43451;49.060;10.616;2023-02-19T08:47:59;97245.03;;;7.19;100.00
57628;BME280;43451;49.060;10.616;2023-02-19T08:50:25;97248.53;;;7.20;100.00
57628;BME280;43451;49.060;10.616;2023-02-19T08:52:51;97255.00;;;7.15;100.00
57628;BME280;43451;49.060;10.616;2023-02-19T08:55:17;97251.78;;;7.29;100.00
57628;BME280;43451;49.060;10.616;2023-02-19T08:57:43;97248.75;;;7.31;100.00
57628;BME280;43451;49.060;10.616;2023-02-19T09:00:09;97252.09;;;7.24;100.00
57628;BME280;43451;49.060;10.616;2023-02-19T09:02:35;97259.19;;;7.32;100.00
57628;BME280;43451;49.060;10.616;2023-02-19T09:05:01;97261.97;;;7.36;100.00
57628;BME280;43451;49.060;10.616;2023-02-19T09:07:27;97259.47;;;7.27;100.00
57628;BME280;43451;49.060;10.616;2023-02-19T09:09:52;97260.13;;;7.20;100.00
57628;BME280;43451;49.060;10.616;2023-02-19T09:12:19;97259.59;;;7.34;100.00
57628;BME280;43451;49.060;10.616;2023-02-19T09:14:44;97266.78;;;7.46;100.00
57628;BME280;43451;49.060;10.616;2023-02-19T09:17:10;97272.53;;;7.44;100.00
57628;BME280;43451;49.060;10.616;2023-02-19T09:19:36;97267.56;;;7.47;100.00
57628;BME280;43451;49.060;10.616;2023-02-19T09:22:02;97271.19;;;7.35;100.00
57628;BME280;43451;49.060;10.616;2023-02-19T09:24:28;97284.50;;;7.43;100.00
57628;BME280;43451;49.060;10.616;2023-02-19T09:26:54;97289.00;;;7.36;100.00
57628;BME280;43451;49.060;10.616;2023-02-19T09:29:23;97306.25;;;7.51;100.00
57628;BME280;43451;49.060;10.616;2023-02-19T09:31:49;97298.28;;;7.38;100.00
57628;BME280;43451;49.060;10.616;2023-02-19T09:34:14;97301.31;;;7.33;100.00
57628;BME280;43451;49.060;10.616;2023-02-19T09:36:40;97308.97;;;7.31;100.00
57628;BME280;43451;49.060;10.616;2023-02-19T09:39:08;97313.66;;;7.34;100.00
57628;BME280;43451;49.060;10.616;2023-02-19T09:41:41;97309.59;;;7.25;100.00
57628;BME280;43451;49.060;10.616;2023-02-19T09:44:13;97315.88;;;7.29;100.00
57628;BME280;43451;49.060;10.616;2023-02-19T09:46:46;97329.09;;;7.34;100.00
57628;BME280;43451;49.060;10.616;2023-02-19T09:52:02;97329.88;;;7.34;100.00
57628;BME280;43451;49.060;10.616;2023-02-19T09:54:31;97345.13;;;7.42;100.00
57628;BME280;43451;49.060;10.616;2023-02-19T09:57:00;97334.50;;;7.34;100.00
57628;BME280;43451;49.060;10.616;2023-02-19T09:59:28;97351.66;;;7.41;100.00
57628;BME280;43451;49.060;10.616;2023-02-19T10:02:23;97345.53;;;7.25;100.00
57628;BME280;43451;49.060;10.616;2023-02-19T10:04:49;97339.69;;;7.23;100.00
57628;BME280;43451;49.060;10.616;2023-02-19T10:07:20;97342.25;;;7.35;100.00
57628;BME280;43451;49.060;10.616;2023-02-19T10:09:59;97350.91;;;7.25;100.00
57628;BME280;43451;49.060;10.616;2023-02-19T10:12:29;97345.41;;;7.37;100.00
57628;BME280;43451;49.060;10.616;2023-02-19T10:15:23;97343.53;;;7.22;100.00
57628;BME280;43451;49.060;10.616;2023-02-19T10:17:49;97341.66;;;7.26;100.00
57628;BME280;43451;49.060;10.616;2023-02-19T10:20:19;97333.94;;;7.25;100.00
57628;BME280;43451;49.060;10.616;2023-02-19T10:22:52;97339.13;;;7.14;100.00
57628;BME280;43451;49.060;10.616;2023-02-19T10:25:20;97330.75;;;7.03;100.00
57628;BME280;43451;49.060;10.616;2023-02-19T10:27:45;97329.13;;;6.98;100.00
57628;BME280;43451;49.060;10.616;2023-02-19T10:30:23;97331.41;;;7.16;100.00
57628;BME280;43451;49.060;10.616;2023-02-19T10:33:04;97349.75;;;7.07;100.00
57628;BME280;43451;49.060;10.616;2023-02-19T10:38:18;97357.00;;;7.03;100.00
57628;BME280;43451;49.060;10.616;2023-02-19T10:40:44;97354.88;;;7.12;100.00
57628;BME280;43451;49.060;10.616;2023-02-19T10:43:22;97352.06;;;7.24;100.00
57628;BME280;43451;49.060;10.616;2023-02-19T10:45:56;97358.41;;;7.32;100.00
57628;BME280;43451;49.060;10.616;2023-02-19T10:48:26;97364.03;;;7.42;100.00
57628;BME280;43451;49.060;10.616;2023-02-19T10:51:01;97376.69;;;7.58;100.00
57628;BME280;43451;49.060;10.616;2023-02-19T10:53:47;97371.94;;;7.51;100.00
57628;BME280;43451;49.060;10.616;2023-02-19T10:56:26;97385.38;;;7.67;100.00
57628;BME280;43451;49.060;10.616;2023-02-19T10:58:54;97388.16;;;7.71;100.00
57628;BME280;43451;49.060;10.616;2023-02-19T11:01:21;97383.81;;;7.66;100.00
57628;BME280;43451;49.060;10.616;2023-02-19T11:04:15;97367.81;;;7.57;100.00
57628;BME280;43451;49.060;10.616;2023-02-19T11:06:42;97377.44;;;7.74;100.00
57628;BME280;43451;49.060;10.616;2023-02-19T11:09:27;97371.72;;;7.60;100.00
57628;BME280;43451;49.060;10.616;2023-02-19T11:11:55;97363.69;;;7.44;100.00
57628;BME280;43451;49.060;10.616;2023-02-19T11:14:23;97377.72;;;7.69;100.00
57628;BME280;43451;49.060;10.616;2023-02-19T11:16:52;97373.56;;;7.95;100.00
57628;BME280;43451;49.060;10.616;2023-02-19T11:21:49;97364.69;;;8.17;100.00
57628;BME280;43451;49.060;10.616;2023-02-19T11:24:35;97368.38;;;7.86;100.00
57628;BME280;43451;49.060;10.616;2023-02-19T11:27:04;97365.31;;;7.87;100.00
57628;BME280;43451;49.060;10.616;2023-02-19T11:29:31;97363.81;;;7.71;100.00
57628;BME280;43451;49.060;10.616;2023-02-19T11:32:28;97367.03;;;7.76;100.00
57628;BME280;43451;49.060;10.616;2023-02-19T11:37:57;97362.09;;;8.01;100.00
57628;BME280;43451;49.060;10.616;2023-02-19T11:46:20;97359.81;;;8.46;100.00
57628;BME280;43451;49.060;10.616;2023-02-19T11:48:53;97357.97;;;8.30;100.00
57628;BME280;43451;49.060;10.616;2023-02-19T11:51:33;97363.94;;;8.17;100.00
57628;BME280;43451;49.060;10.616;2023-02-19T11:56:41;97373.03;;;8.28;100.00
57628;BME280;43451;49.060;10.616;2023-02-19T11:59:20;97403.03;;;8.39;100.00
57628;BME280;43451;49.060;10.616;2023-02-19T12:02:20;97378.78;;;8.26;100.00
57628;BME280;43451;49.060;10.616;2023-02-19T12:05:12;97404.25;;;8.02;100.00
57628;BME280;43451;49.060;10.616;2023-02-19T12:13:11;97394.22;;;7.64;100.00
57628;BME280;43451;49.060;10.616;2023-02-19T12:16:04;97408.44;;;7.61;100.00
57628;BME280;43451;49.060;10.616;2023-02-19T12:18:52;97417.88;;;7.51;100.00
57628;BME280;43451;49.060;10.616;2023-02-19T12:21:32;97415.22;;;7.35;100.00
57628;BME280;43451;49.060;10.616;2023-02-19T12:24:14;97413.00;;;7.57;100.00
57628;BME280;43451;49.060;10.616;2023-02-19T12:26:57;97403.19;;;7.68;100.00
57628;BME280;43451;49.060;10.616;2023-02-19T12:32:34;97406.16;;;8.02;100.00
57628;BME280;43451;49.060;10.616;2023-02-19T12:38:20;97386.91;;;7.64;100.00
57628;BME280;43451;49.060;10.616;2023-02-19T12:43:39;97397.72;;;7.64;100.00
57628;BME280;43451;49.060;10.616;2023-02-19T12:46:17;97394.66;;;7.66;100.00
57628;BME280;43451;49.060;10.616;2023-02-19T12:54:22;97374.56;;;7.67;100.00
57628;BME280;43451;49.060;10.616;2023-02-19T12:57:10;97374.81;;;7.58;100.00
57628;BME280;43451;49.060;10.616;2023-02-19T13:02:34;97378.91;;;7.91;100.00
57628;BME280;43451;49.060;10.616;2023-02-19T13:05:22;97378.44;;;8.08;100.00
57628;BME280;43451;49.060;10.616;2023-02-19T13:10:57;97379.22;;;8.28;100.00
57628;BME280;43451;49.060;10.616;2023-02-19T13:16:14;97374.22;;;8.30;100.00
57628;BME280;43451;49.060;10.616;2023-02-19T13:18:45;97385.84;;;8.31;100.00
57628;BME280;43451;49.060;10.616;2023-02-19T13:21:12;97394.19;;;8.22;100.00
57628;BME280;43451;49.060;10.616;2023-02-19T13:24:00;97388.25;;;8.36;100.00
57628;BME280;43451;49.060;10.616;2023-02-19T13:35:20;97369.50;;;8.27;100.00
57628;BME280;43451;49.060;10.616;2023-02-19T13:37:48;97384.84;;;8.20;100.00
57628;BME280;43451;49.060;10.616;2023-02-19T13:40:39;97402.03;;;8.08;100.00
57628;BME280;43451;49.060;10.616;2023-02-19T13:45:55;97378.25;;;7.98;100.00
57628;BME280;43451;49.060;10.616;2023-02-19T13:50:47;97365.78;;;8.12;100.00
57628;BME280;43451;49.060;10.616;2023-02-19T14:14:55;97356.66;;;8.90;100.00
57628;BME280;43451;49.060;10.616;2023-02-19T14:22:46;97369.13;;;8.71;100.00
57628;BME280;43451;49.060;10.616;2023-02-19T14:25:39;97387.25;;;8.67;100.00
57628;BME280;43451;49.060;10.616;2023-02-19T14:30:52;97380.19;;;8.63;100.00
57628;BME280;43451;49.060;10.616;2023-02-19T14:33:48;97396.78;;;8.57;100.00
57628;BME280;43451;49.060;10.616;2023-02-19T14:36:31;97403.06;;;8.42;100.00
57628;BME280;43451;49.060;10.616;2023-02-19T14:39:05;97397.31;;;8.24;100.00
57628;BME280;43451;49.060;10.616;2023-02-19T14:41:37;97416.56;;;8.19;100.00
57628;BME280;43451;49.060;10.616;2023-02-19T14:44:06;97406.06;;;8.18;100.00
57628;BME280;43451;49.060;10.616;2023-02-19T14:46:42;97405.06;;;8.26;100.00
57628;BME280;43451;49.060;10.616;2023-02-19T14:49:18;97417.06;;;8.25;100.00
57628;BME280;43451;49.060;10.616;2023-02-19T14:52:02;97404.31;;;8.25;100.00
57628;BME280;43451;49.060;10.616;2023-02-19T14:54:47;97409.22;;;8.39;100.00
57628;BME280;43451;49.060;10.616;2023-02-19T14:57:18;97406.28;;;8.48;100.00
57628;BME280;43451;49.060;10.616;2023-02-19T15:02:46;97421.16;;;8.57;100.00
57628;BME280;43451;49.060;10.616;2023-02-19T15:05:18;97423.13;;;8.60;100.00